createdAt,value
2023-08-04T00:00:56.226Z,95.62
2023-08-04T00:03:24.411Z,95.81
2023-08-04T00:05:52.608Z,95.85
2023-08-04T00:08:20.803Z,95.51
2023-08-04T00:10:48.933Z,95.69
2023-08-04T00:13:17.055Z,95.65
2023-08-04T00:15:47.148Z,95.88
2023-08-04T00:18:15.254Z,95.64
2023-08-04T00:20:43.380Z,95.83
2023-08-04T00:23:11.477Z,95.57
2023-08-04T00:25:39.593Z,95.47
2023-08-04T00:28:07.704Z,95.06
2023-08-04T00:30:35.812Z,94.97
2023-08-04T00:33:05.615Z,94.94
2023-08-04T00:35:33.821Z,94.72
2023-08-04T00:38:01.927Z,94.69
2023-08-04T00:40:30.221Z,94.49
2023-08-04T00:42:58.371Z,94.26
2023-08-04T00:45:27.332Z,94.01
2023-08-04T00:47:55.457Z,94.22
2023-08-04T00:50:25.156Z,94.02
2023-08-04T00:52:53.298Z,94.01
2023-08-04T00:55:21.999Z,93.72
2023-08-04T00:57:50.915Z,93.56
2023-08-04T01:00:19.027Z,93.72
2023-08-04T01:02:47.201Z,93.56
2023-08-04T01:05:15.531Z,93.23
2023-08-04T01:07:49.999Z,93.32
2023-08-04T01:10:22.963Z,93.12
2023-08-04T01:12:58.221Z,93.11
2023-08-04T01:15:27.108Z,92.73
2023-08-04T01:17:55.809Z,92.34
2023-08-04T01:20:24.477Z,92.07
2023-08-04T01:22:54.391Z,91.56
2023-08-04T01:25:25.659Z,91.23
2023-08-04T01:28:00.181Z,91.17
2023-08-04T01:30:29.470Z,91.36
2023-08-04T01:32:57.657Z,91.55
2023-08-04T01:35:25.770Z,91.36
2023-08-04T01:37:55.256Z,91.40
2023-08-04T01:40:23.490Z,91.41
2023-08-04T01:42:51.607Z,91.43
2023-08-04T01:45:19.785Z,91.37
2023-08-04T01:47:49.769Z,91.15
2023-08-04T01:50:18.192Z,90.82
2023-08-04T01:52:46.314Z,90.72
2023-08-04T01:55:15.830Z,90.69
2023-08-04T01:57:43.948Z,90.51
2023-08-04T02:00:14.582Z,90.35
2023-08-04T02:02:42.839Z,89.97
2023-08-04T02:05:13.007Z,90.21
2023-08-04T02:07:41.101Z,90.46
2023-08-04T02:10:11.185Z,90.42
2023-08-04T02:12:42.186Z,90.58
2023-08-04T02:15:11.114Z,90.19
2023-08-04T02:17:41.404Z,90.80
2023-08-04T02:20:13.253Z,90.69
2023-08-04T02:22:41.403Z,90.52
2023-08-04T02:25:09.931Z,90.99
2023-08-04T02:27:38.082Z,90.80
2023-08-04T02:30:09.756Z,91.64
2023-08-04T02:32:37.855Z,92.03
2023-08-04T02:35:06.759Z,92.11
2023-08-04T02:37:34.856Z,92.04
2023-08-04T02:40:03.382Z,92.61
2023-08-04T02:42:31.479Z,92.87
2023-08-04T02:44:59.810Z,93.23
2023-08-04T02:47:29.694Z,93.20
2023-08-04T02:49:57.799Z,93.60
2023-08-04T02:52:25.902Z,93.67
2023-08-04T02:54:56.378Z,93.77
2023-08-04T02:57:29.337Z,93.87
2023-08-04T02:59:57.644Z,94.06
2023-08-04T03:02:26.070Z,93.98
2023-08-04T03:04:55.611Z,93.78
2023-08-04T03:07:23.905Z,93.75
2023-08-04T03:09:52.024Z,93.70
2023-08-04T03:12:20.136Z,93.57
2023-08-04T03:14:48.227Z,93.58
2023-08-04T03:17:16.636Z,93.02
2023-08-04T03:19:44.703Z,92.98
2023-08-04T03:22:15.367Z,92.80
2023-08-04T03:24:43.530Z,92.83
2023-08-04T03:27:11.624Z,92.92
2023-08-04T03:29:39.700Z,92.70
2023-08-04T03:32:08.320Z,92.97
2023-08-04T03:34:36.424Z,92.85
2023-08-04T03:37:04.872Z,93.29
2023-08-04T03:39:34.345Z,92.95
2023-08-04T03:42:02.477Z,93.11
2023-08-04T03:44:30.587Z,93.01
2023-08-04T03:46:58.720Z,92.97
2023-08-04T03:49:26.816Z,92.96
2023-08-04T03:51:54.913Z,92.72
2023-08-04T03:54:23.030Z,92.71
2023-08-04T03:56:52.512Z,92.39
2023-08-04T03:59:20.604Z,92.84
2023-08-04T04:01:49.252Z,92.88
2023-08-04T04:04:17.620Z,92.34
2023-08-04T04:06:45.798Z,92.19
2023-08-04T04:09:15.710Z,92.14
2023-08-04T04:11:43.846Z,91.90
2023-08-04T04:14:13.388Z,91.90
2023-08-04T04:16:41.581Z,91.69
2023-08-04T04:19:09.884Z,91.68
2023-08-04T04:21:38.655Z,91.58
2023-08-04T04:24:06.902Z,91.42
2023-08-04T04:26:35.008Z,91.25
2023-08-04T04:29:03.555Z,91.25
2023-08-04T04:31:33.018Z,91.19
2023-08-04T04:34:01.108Z,91.31
2023-08-04T04:36:29.252Z,91.14
2023-08-04T04:38:57.376Z,91.41
2023-08-04T04:41:25.482Z,91.23
2023-08-04T04:43:53.569Z,91.32
2023-08-04T04:46:21.767Z,91.25
2023-08-04T04:48:51.236Z,90.96
2023-08-04T04:51:19.389Z,90.88
2023-08-04T04:53:47.604Z,91.18
2023-08-04T04:56:15.748Z,91.19
2023-08-04T04:58:43.846Z,91.14
2023-08-04T05:01:12.065Z,90.89
2023-08-04T05:03:40.208Z,90.80
2023-08-04T05:06:09.725Z,90.59
2023-08-04T05:08:37.835Z,90.59
2023-08-04T05:11:05.955Z,90.71
2023-08-04T05:13:34.181Z,90.78
2023-08-04T05:16:02.416Z,90.70
2023-08-04T05:18:30.531Z,90.40
2023-08-04T05:20:58.661Z,90.08
2023-08-04T05:23:28.248Z,90.38
2023-08-04T05:25:56.424Z,90.92
2023-08-04T05:28:25.800Z,90.59
2023-08-04T05:30:57.327Z,90.57
2023-08-04T05:33:25.777Z,90.72
2023-08-04T05:35:54.766Z,90.14
2023-08-04T05:38:23.918Z,89.65
2023-08-04T05:40:53.497Z,89.85
2023-08-04T05:43:21.662Z,89.60
2023-08-04T05:45:50.122Z,89.65
2023-08-04T05:48:18.363Z,89.40
2023-08-04T05:50:46.582Z,89.39
2023-08-04T05:53:14.879Z,88.96
2023-08-04T05:55:42.977Z,88.38
2023-08-04T05:58:12.454Z,87.66
2023-08-04T06:00:40.619Z,88.12
2023-08-04T06:03:08.760Z,88.34
2023-08-04T06:05:36.842Z,87.63
2023-08-04T06:08:05.607Z,87.70
2023-08-04T06:10:34.716Z,88.11
2023-08-04T06:13:03.689Z,88.05
2023-08-04T06:15:33.304Z,88.66
2023-08-04T06:18:01.478Z,88.68
2023-08-04T06:20:29.717Z,88.80
2023-08-04T06:22:57.878Z,88.98
2023-08-04T06:25:26.039Z,88.53
2023-08-04T06:27:54.564Z,87.85
2023-08-04T06:30:22.955Z,86.79
2023-08-04T06:32:52.684Z,86.46
2023-08-04T06:35:20.974Z,85.84
2023-08-04T06:37:49.173Z,85.35
2023-08-04T06:40:17.805Z,84.47
2023-08-04T06:42:45.943Z,83.75
2023-08-04T06:45:14.021Z,83.41
2023-08-04T06:47:42.201Z,83.58
2023-08-04T06:50:12.331Z,83.88
2023-08-04T06:52:40.601Z,83.35
2023-08-04T06:55:09.415Z,81.96
2023-08-04T06:57:37.541Z,81.80
2023-08-04T07:00:06.791Z,81.52
2023-08-04T07:02:34.981Z,81.17
2023-08-04T07:05:05.184Z,81.41
2023-08-04T07:07:34.790Z,81.48
2023-08-04T07:10:03.771Z,81.38
2023-08-04T07:12:31.882Z,80.56
2023-08-04T07:14:59.975Z,80.30
2023-08-04T07:17:28.131Z,79.78
2023-08-04T07:19:56.250Z,80.45
2023-08-04T07:22:24.458Z,80.39
2023-08-04T07:24:55.180Z,79.45
2023-08-04T07:27:23.316Z,78.10
2023-08-04T07:29:51.431Z,76.44
2023-08-04T07:32:20.091Z,76.35
2023-08-04T07:34:48.238Z,77.33
2023-08-04T07:37:16.366Z,76.48
2023-08-04T07:39:44.460Z,75.49
2023-08-04T07:42:13.957Z,73.75
2023-08-04T07:44:42.062Z,74.16
2023-08-04T07:47:10.184Z,74.69
2023-08-04T07:49:38.543Z,75.17
2023-08-04T07:52:07.856Z,75.71
2023-08-04T07:54:36.205Z,75.21
2023-08-04T07:57:05.024Z,74.98
2023-08-04T07:59:35.329Z,74.68
2023-08-04T08:02:03.473Z,74.02
2023-08-04T08:04:31.634Z,75.34
2023-08-04T08:06:59.793Z,75.55
2023-08-04T08:09:27.978Z,73.92
2023-08-04T08:11:56.093Z,73.49
2023-08-04T08:14:24.256Z,72.22
2023-08-04T08:16:54.068Z,73.06
2023-08-04T08:19:22.196Z,72.60
2023-08-04T08:21:50.590Z,72.72
2023-08-04T08:24:18.837Z,71.74
2023-08-04T08:26:47.085Z,71.52
2023-08-04T08:29:15.210Z,71.89
2023-08-04T08:31:43.366Z,72.65
2023-08-04T08:34:12.814Z,73.50
2023-08-04T08:36:40.939Z,72.99
2023-08-04T08:39:09.321Z,73.00
2023-08-04T08:41:37.542Z,73.00
2023-08-04T08:44:05.987Z,69.50
2023-08-04T08:46:34.223Z,69.44
2023-08-04T08:49:04.121Z,68.54
2023-08-04T08:51:35.209Z,68.68
2023-08-04T08:54:04.909Z,67.59
2023-08-04T08:56:33.089Z,67.21
2023-08-04T08:59:01.392Z,65.97
2023-08-04T09:01:29.710Z,67.05
2023-08-04T09:03:59.021Z,67.10
2023-08-04T09:06:27.136Z,68.04
2023-08-04T09:08:56.839Z,69.11
2023-08-04T09:11:25.021Z,69.13
2023-08-04T09:13:53.209Z,70.14
2023-08-04T09:16:33.590Z,72.14
2023-08-04T09:19:06.009Z,73.53
2023-08-04T09:21:34.585Z,73.68
2023-08-04T09:24:05.492Z,74.97
2023-08-04T09:26:43.385Z,76.54
2023-08-04T09:29:11.902Z,76.57
2023-08-04T09:31:41.827Z,76.62
2023-08-04T09:34:11.159Z,75.17
2023-08-04T09:36:42.613Z,75.94
2023-08-04T09:39:12.319Z,75.94
2023-08-04T09:41:43.842Z,75.78
2023-08-04T09:44:12.382Z,74.82
2023-08-04T09:46:41.858Z,74.98
2023-08-04T09:49:10.200Z,73.89
2023-08-04T09:51:42.897Z,75.06
2023-08-04T09:54:12.980Z,73.77
2023-08-04T09:56:41.261Z,72.35
2023-08-04T09:59:09.857Z,72.96
2023-08-04T10:01:38.303Z,72.39
2023-08-04T10:04:07.386Z,73.26
2023-08-04T10:06:35.740Z,73.51
2023-08-04T10:09:04.506Z,73.74
2023-08-04T10:11:34.014Z,73.68
2023-08-04T10:14:02.842Z,74.56
2023-08-04T10:16:34.053Z,75.14
2023-08-04T10:19:03.362Z,76.71
2023-08-04T10:21:35.361Z,75.44
2023-08-04T10:24:06.028Z,75.15
2023-08-04T10:26:35.908Z,74.11
2023-08-04T10:29:09.771Z,72.92
2023-08-04T10:31:54.337Z,72.88
2023-08-04T10:34:28.252Z,72.40
2023-08-04T10:37:07.395Z,71.06
2023-08-04T10:39:37.336Z,69.20
2023-08-04T10:42:17.636Z,65.42
2023-08-04T10:44:54.069Z,63.72
2023-08-04T10:47:36.258Z,63.96
2023-08-04T10:50:05.625Z,63.68
2023-08-04T10:52:35.178Z,63.25
2023-08-04T10:55:05.748Z,61.73
2023-08-04T10:57:36.208Z,61.55
2023-08-04T11:00:06.680Z,61.44
2023-08-04T11:02:35.573Z,60.48
2023-08-04T11:05:05.157Z,60.94
2023-08-04T11:07:34.072Z,61.08
2023-08-04T11:10:05.907Z,61.30
2023-08-04T11:12:35.682Z,59.71
2023-08-04T11:15:03.982Z,58.72
2023-08-04T11:17:32.192Z,59.03
2023-08-04T11:20:00.479Z,58.93
2023-08-04T11:22:28.629Z,57.98
2023-08-04T11:24:56.740Z,58.60
2023-08-04T11:27:24.867Z,58.32
2023-08-04T11:29:57.330Z,58.76
2023-08-04T11:32:27.010Z,59.77
2023-08-04T11:34:57.161Z,58.34
2023-08-04T11:37:25.789Z,59.21
2023-08-04T11:39:56.204Z,59.48
2023-08-04T11:42:25.841Z,58.81
2023-08-04T11:44:53.973Z,57.41
2023-08-04T11:47:25.960Z,58.58
2023-08-04T11:49:54.948Z,57.86
2023-08-04T11:52:24.492Z,57.97
2023-08-04T11:54:54.250Z,58.08
2023-08-04T11:57:23.694Z,57.36
2023-08-04T11:59:53.887Z,57.26
2023-08-04T12:02:23.895Z,58.02
2023-08-04T12:05:07.093Z,57.85
2023-08-04T12:07:35.549Z,57.28
2023-08-04T12:10:03.923Z,56.43
2023-08-04T12:12:38.949Z,56.97
2023-08-04T12:15:08.424Z,57.94
2023-08-04T12:17:39.970Z,56.35
2023-08-04T12:20:09.638Z,57.24
2023-08-04T12:22:38.475Z,57.00
2023-08-04T12:25:07.464Z,58.19
2023-08-04T12:27:36.240Z,57.56
2023-08-04T12:30:04.718Z,57.80
2023-08-04T12:32:35.132Z,57.74
2023-08-04T12:35:05.496Z,59.19
2023-08-04T12:37:33.637Z,60.70
2023-08-04T12:40:01.756Z,61.11
2023-08-04T12:42:30.008Z,60.30
2023-08-04T12:44:58.141Z,59.52
2023-08-04T12:47:26.287Z,57.13
2023-08-04T12:49:54.550Z,57.50
2023-08-04T12:52:24.161Z,55.99
2023-08-04T12:54:52.274Z,56.64
2023-08-04T12:57:20.401Z,54.90
2023-08-04T12:59:48.474Z,53.95
2023-08-04T13:02:16.854Z,54.31
2023-08-04T13:04:45.138Z,52.43
2023-08-04T13:07:13.284Z,53.14
2023-08-04T13:09:42.761Z,53.07
2023-08-04T13:12:10.989Z,53.60
2023-08-04T13:14:39.121Z,53.03
2023-08-04T13:17:07.765Z,52.14
2023-08-04T13:19:35.933Z,53.08
2023-08-04T13:22:05.090Z,53.50
2023-08-04T13:24:33.252Z,55.06
2023-08-04T13:27:06.239Z,53.36
2023-08-04T13:29:34.326Z,53.89
2023-08-04T13:32:02.537Z,53.69
2023-08-04T13:34:30.687Z,52.52
2023-08-04T13:36:58.789Z,53.48
2023-08-04T13:39:27.003Z,54.35
2023-08-04T13:41:55.201Z,53.94
2023-08-04T13:44:24.702Z,54.67
2023-08-04T13:46:52.860Z,55.49
2023-08-04T13:49:21.102Z,53.91
2023-08-04T13:51:49.886Z,53.68
2023-08-04T13:54:18.436Z,54.20
2023-08-04T13:56:46.580Z,54.55
2023-08-04T13:59:15.651Z,54.12
2023-08-04T14:01:45.295Z,54.59
2023-08-04T14:04:15.542Z,55.31
2023-08-04T14:06:43.676Z,54.35
2023-08-04T14:09:11.760Z,53.65
2023-08-04T14:11:40.235Z,52.74
2023-08-04T14:14:08.898Z,52.13
2023-08-04T14:16:38.788Z,51.65
2023-08-04T14:19:08.531Z,51.06
2023-08-04T14:21:36.754Z,52.05
2023-08-04T14:24:05.244Z,51.80
2023-08-04T14:26:33.348Z,51.13
2023-08-04T14:29:01.548Z,52.26
2023-08-04T14:31:29.689Z,53.02
2023-08-04T14:33:57.800Z,54.38
2023-08-04T14:36:27.290Z,54.84
2023-08-04T14:38:55.366Z,54.40
2023-08-04T14:41:23.547Z,55.00
2023-08-04T14:43:52.860Z,55.58
2023-08-04T14:46:21.175Z,55.88
2023-08-04T14:48:49.330Z,56.84
2023-08-04T14:51:17.426Z,58.03
2023-08-04T14:53:46.896Z,57.37
2023-08-04T14:56:15.032Z,57.92
2023-08-04T14:58:43.218Z,58.38
2023-08-04T15:01:11.523Z,59.32
2023-08-04T15:03:41.105Z,60.19
2023-08-04T15:06:13.879Z,59.91
2023-08-04T15:08:42.225Z,59.88
2023-08-04T15:11:12.651Z,59.75
2023-08-04T15:13:40.939Z,61.47
2023-08-04T15:16:09.738Z,61.55
2023-08-04T15:18:38.006Z,60.80
2023-08-04T15:21:06.373Z,60.13
2023-08-04T15:23:34.506Z,60.27
2023-08-04T15:26:02.701Z,60.64
2023-08-04T15:28:32.232Z,60.97
2023-08-04T15:31:06.242Z,62.03
2023-08-04T15:33:35.547Z,62.20
2023-08-04T15:36:04.256Z,61.80
2023-08-04T15:38:32.411Z,62.40
2023-08-04T15:41:01.816Z,61.51
2023-08-04T15:43:30.341Z,61.24
2023-08-04T15:45:59.833Z,61.34
2023-08-04T15:48:27.999Z,62.23
2023-08-04T15:51:00.600Z,62.03
2023-08-04T15:53:28.822Z,61.59
2023-08-04T15:55:57.160Z,61.47
2023-08-04T15:58:25.882Z,61.39
2023-08-04T16:00:54.332Z,61.19
2023-08-04T16:03:23.815Z,61.77
2023-08-04T16:05:59.873Z,62.55
2023-08-04T16:08:28.081Z,62.84
2023-08-04T16:10:59.832Z,62.16
2023-08-04T16:13:27.994Z,61.29
2023-08-04T16:16:00.379Z,61.06
2023-08-04T16:18:31.553Z,59.27
2023-08-04T16:20:59.754Z,57.84
2023-08-04T16:23:28.048Z,57.79
2023-08-04T16:25:56.525Z,57.79
2023-08-04T16:28:24.761Z,57.46
2023-08-04T16:30:52.847Z,58.77
2023-08-04T16:33:21.137Z,58.18
2023-08-04T16:35:50.631Z,58.49
2023-08-04T16:38:18.766Z,57.61
2023-08-04T16:40:46.918Z,57.63
2023-08-04T16:43:15.173Z,58.43
2023-08-04T16:45:43.706Z,58.41
2023-08-04T16:48:11.946Z,58.00
2023-08-04T16:50:40.188Z,57.38
2023-08-04T16:53:09.709Z,58.03
2023-08-04T16:55:37.830Z,58.10
2023-08-04T16:58:05.965Z,58.17
2023-08-04T17:00:34.066Z,59.40
2023-08-04T17:03:03.201Z,59.43
2023-08-04T17:05:31.989Z,59.04
2023-08-04T17:08:00.199Z,58.00
2023-08-04T17:10:32.256Z,57.67
2023-08-04T17:13:00.395Z,57.60
2023-08-04T17:15:36.549Z,58.91
2023-08-04T17:18:05.778Z,60.39
2023-08-04T17:20:33.924Z,60.67
2023-08-04T17:23:02.032Z,61.60
2023-08-04T17:25:33.176Z,61.92
2023-08-04T17:28:01.328Z,61.71
2023-08-04T17:30:29.440Z,61.23
2023-08-04T17:32:57.712Z,62.21
2023-08-04T17:35:25.930Z,61.44
2023-08-04T17:37:54.048Z,61.32
2023-08-04T17:40:22.213Z,59.78
2023-08-04T17:42:51.763Z,60.20
2023-08-04T17:45:19.832Z,59.00
2023-08-04T17:47:48.026Z,59.52
2023-08-04T17:50:16.261Z,60.35
2023-08-04T17:52:44.388Z,61.55
2023-08-04T17:55:12.516Z,62.01
2023-08-04T17:57:40.636Z,60.94
2023-08-04T18:00:11.635Z,61.84
2023-08-04T18:02:39.790Z,61.96
2023-08-04T18:05:08.474Z,62.15
2023-08-04T18:07:36.646Z,61.62
2023-08-04T18:10:05.496Z,60.62
2023-08-04T18:12:33.639Z,61.22
2023-08-04T18:15:01.868Z,61.38
2023-08-04T18:17:31.395Z,61.86
2023-08-04T18:19:59.537Z,61.55
2023-08-04T18:22:27.666Z,60.87
2023-08-04T18:24:55.780Z,61.89
2023-08-04T18:27:23.890Z,61.25
2023-08-04T18:29:53.153Z,61.24
2023-08-04T18:32:21.326Z,61.17
2023-08-04T18:34:50.785Z,61.07
2023-08-04T18:37:18.872Z,61.79
2023-08-04T18:39:47.075Z,62.51
2023-08-04T18:42:15.877Z,62.67
2023-08-04T18:44:44.006Z,62.63
2023-08-04T18:47:12.125Z,63.36
2023-08-04T18:49:40.363Z,64.11
2023-08-04T18:52:10.120Z,64.30
2023-08-04T18:54:38.239Z,65.05
2023-08-04T18:57:06.907Z,65.22
2023-08-04T18:59:34.999Z,65.62
2023-08-04T19:02:03.161Z,66.14
2023-08-04T19:04:31.276Z,66.16
2023-08-04T19:06:59.392Z,66.71
2023-08-04T19:09:28.888Z,66.86
2023-08-04T19:11:57.005Z,66.96
2023-08-04T19:14:25.203Z,67.64
2023-08-04T19:16:53.529Z,68.71
2023-08-04T19:19:21.728Z,69.05
2023-08-04T19:21:49.983Z,69.34
2023-08-04T19:24:18.525Z,69.84
2023-08-04T19:26:48.383Z,70.56
2023-08-04T19:29:16.780Z,70.88
2023-08-04T19:31:44.887Z,70.14
2023-08-04T19:34:14.322Z,70.88
2023-08-04T19:36:42.588Z,70.65
2023-08-04T19:39:10.825Z,71.05
2023-08-04T19:41:38.953Z,71.52
2023-08-04T19:44:08.460Z,72.15
2023-08-04T19:46:36.775Z,71.80
2023-08-04T19:49:04.972Z,72.63
2023-08-04T19:51:33.062Z,72.64
2023-08-04T19:54:01.230Z,73.11
2023-08-04T19:56:29.313Z,73.25
2023-08-04T19:58:57.446Z,73.21
2023-08-04T20:01:26.945Z,73.41
2023-08-04T20:03:56.076Z,73.87
2023-08-04T20:06:24.222Z,74.15
2023-08-04T20:08:52.315Z,74.43
2023-08-04T20:11:20.741Z,74.99
2023-08-04T20:13:48.869Z,75.68
2023-08-04T20:16:20.455Z,76.00
2023-08-04T20:18:50.326Z,76.39
2023-08-04T20:21:19.244Z,76.57
2023-08-04T20:23:47.413Z,77.05
2023-08-04T20:26:16.605Z,76.59
2023-08-04T20:28:46.144Z,76.13
2023-08-04T20:31:17.406Z,75.93
2023-08-04T20:33:45.694Z,75.98
2023-08-04T20:36:16.352Z,76.11
2023-08-04T20:38:44.562Z,76.37
2023-08-04T20:41:13.876Z,76.64
2023-08-04T20:43:43.483Z,76.74
2023-08-04T20:46:12.301Z,77.26
2023-08-04T20:48:40.557Z,77.82
2023-08-04T20:51:08.829Z,78.46
2023-08-04T20:53:40.132Z,78.65
2023-08-04T20:56:09.003Z,78.71
2023-08-04T20:58:39.021Z,79.01
2023-08-04T21:01:08.984Z,79.67
2023-08-04T21:03:38.665Z,79.74
2023-08-04T21:06:07.320Z,79.87
2023-08-04T21:08:35.610Z,80.03
2023-08-04T21:11:05.076Z,80.32
2023-08-04T21:13:33.435Z,80.52
2023-08-04T21:16:01.611Z,80.94
2023-08-04T21:18:29.816Z,81.47
2023-08-04T21:20:58.064Z,81.59
2023-08-04T21:23:26.659Z,82.34
2023-08-04T21:25:55.170Z,82.98
2023-08-04T21:28:24.771Z,83.02
2023-08-04T21:30:53.419Z,83.18
2023-08-04T21:33:22.632Z,82.93
2023-08-04T21:35:59.104Z,83.18
2023-08-04T21:38:27.325Z,82.33
2023-08-04T21:40:57.479Z,82.47
2023-08-04T21:43:28.929Z,82.52
2023-08-04T21:45:56.073Z,82.44
2023-08-04T21:48:24.204Z,82.53
2023-08-04T21:50:52.309Z,82.50
2023-08-04T21:53:20.590Z,82.24
2023-08-04T21:55:54.810Z,82.30
2023-08-04T21:58:23.066Z,82.69
2023-08-04T22:00:52.562Z,82.75
2023-08-04T22:03:20.809Z,82.92
2023-08-04T22:05:52.761Z,83.02
2023-08-04T22:08:20.905Z,83.25
2023-08-04T22:10:48.998Z,83.50
2023-08-04T22:13:17.103Z,83.84
2023-08-04T22:15:45.312Z,83.67
2023-08-04T22:18:14.800Z,84.27
2023-08-04T22:20:43.669Z,84.32
2023-08-04T22:23:11.766Z,84.53
2023-08-04T22:25:39.889Z,84.28
2023-08-04T22:28:10.313Z,84.18
2023-08-04T22:30:39.502Z,84.40
2023-08-04T22:33:07.685Z,84.23
2023-08-04T22:35:37.169Z,84.08
2023-08-04T22:38:05.335Z,84.39
2023-08-04T22:40:33.470Z,84.41
2023-08-04T22:43:01.704Z,84.55
2023-08-04T22:45:29.850Z,84.65
2023-08-04T22:47:58.068Z,84.81
2023-08-04T22:50:26.276Z,84.65
2023-08-04T22:52:55.748Z,84.90
2023-08-04T22:55:23.877Z,84.95
2023-08-04T22:57:51.983Z,85.52
2023-08-04T23:00:20.286Z,85.62
2023-08-04T23:02:48.859Z,85.89
2023-08-04T23:05:17.154Z,85.50
2023-08-04T23:07:45.271Z,85.63
2023-08-04T23:10:14.741Z,85.80
2023-08-04T23:12:43.158Z,85.69
2023-08-04T23:15:12.191Z,86.38
2023-08-04T23:17:40.317Z,86.42
2023-08-04T23:20:09.416Z,86.87
2023-08-04T23:22:37.499Z,87.03
2023-08-04T23:25:06.220Z,86.51
2023-08-04T23:27:35.696Z,86.71
2023-08-04T23:30:05.016Z,86.67
2023-08-04T23:32:33.281Z,86.61
2023-08-04T23:35:01.437Z,86.39
2023-08-04T23:37:29.527Z,86.27
2023-08-04T23:39:57.631Z,86.28
2023-08-04T23:42:26.728Z,86.23
2023-08-04T23:44:56.182Z,86.05
2023-08-04T23:47:24.313Z,86.17
2023-08-04T23:49:52.458Z,86.34
2023-08-04T23:52:20.545Z,86.44
2023-08-04T23:54:48.757Z,86.38
2023-08-04T23:57:16.915Z,86.76
2023-08-04T23:59:45.033Z,86.76
